createdAt,value
2019-02-11T06:58:09.848Z,80.05
2019-02-11T06:59:09.822Z,80.67
2019-02-11T07:00:09.809Z,80.60
2019-02-11T07:01:09.799Z,80.36
2019-02-11T07:02:09.811Z,80.05
2019-02-11T07:03:09.777Z,80.50
2019-02-11T07:04:09.768Z,79.74
2019-02-11T07:05:09.760Z,79.94
2019-02-11T07:06:09.767Z,78.60
2019-02-11T07:07:09.755Z,78.70
2019-02-11T07:08:09.725Z,79.33
2019-02-11T07:09:09.723Z,79.12
2019-02-11T07:10:09.712Z,78.91
2019-02-11T07:11:09.695Z,78.91
2019-02-11T07:12:09.704Z,78.91
2019-02-11T07:13:09.674Z,79.22
2019-02-11T07:14:09.665Z,79.36
2019-02-11T07:15:09.667Z,79.63
2019-02-11T07:16:09.646Z,79.22
2019-02-11T07:17:09.658Z,79.47
2019-02-11T07:19:05.489Z,79.74
2019-02-11T07:20:05.473Z,79.33
2019-02-11T07:21:05.459Z,79.33
2019-02-11T07:22:05.471Z,79.67
2019-02-11T07:23:05.445Z,79.43
2019-02-11T07:24:05.434Z,79.22
2019-02-11T07:25:05.438Z,79.22
2019-02-11T07:26:05.428Z,79.43
2019-02-11T07:27:05.420Z,79.63
2019-02-11T07:28:05.386Z,79.43
2019-02-11T07:29:05.387Z,79.60
2019-02-11T07:30:05.370Z,79.19
2019-02-11T07:31:05.358Z,78.91
2019-02-11T07:32:05.366Z,79.33
2019-02-11T07:33:05.338Z,79.33
2019-02-11T07:34:05.331Z,79.74
2019-02-11T07:35:05.337Z,80.57
2019-02-11T07:36:05.341Z,80.46
2019-02-11T07:37:05.320Z,79.94
2019-02-11T07:38:05.307Z,79.74
2019-02-11T07:39:05.291Z,80.15
2019-02-11T07:40:05.275Z,79.63
2019-02-11T07:41:05.264Z,79.53
2019-02-11T07:42:05.291Z,79.84
2019-02-11T07:43:05.233Z,79.74
2019-02-11T07:44:05.240Z,79.84
2019-02-11T07:45:05.243Z,79.53
2019-02-11T07:46:05.210Z,79.33
2019-02-11T07:47:05.223Z,79.84
2019-02-11T07:48:05.206Z,80.15
2019-02-11T07:49:05.210Z,80.46
2019-02-11T07:50:05.177Z,80.57
2019-02-11T07:51:05.154Z,80.46
2019-02-11T07:52:05.437Z,80.46
2019-02-11T07:53:05.134Z,79.74
2019-02-11T07:54:05.126Z,80.46
2019-02-11T07:55:05.111Z,79.67
2019-02-11T07:56:05.106Z,79.43
2019-02-11T07:57:05.094Z,79.53
2019-02-11T07:58:05.136Z,80.26
2019-02-11T07:59:05.105Z,80.05
2019-02-11T08:00:05.073Z,79.80
2019-02-11T08:01:05.051Z,79.22
2019-02-11T08:02:05.059Z,79.39
2019-02-11T08:03:05.053Z,79.29
2019-02-11T08:04:05.021Z,79.29
2019-02-11T08:05:05.045Z,79.49
2019-02-11T08:06:05.033Z,79.70
2019-02-11T08:07:05.001Z,79.08
2019-02-11T08:08:05.010Z,79.08
2019-02-11T08:09:04.974Z,79.19
2019-02-11T08:10:04.965Z,79.29
2019-02-11T08:11:04.962Z,79.29
2019-02-11T08:12:04.948Z,79.39
2019-02-11T08:13:04.972Z,79.60
2019-02-11T08:14:04.928Z,79.60
2019-02-11T08:15:04.907Z,79.19
2019-02-11T08:16:04.902Z,78.46
2019-02-11T08:17:04.893Z,78.98
2019-02-11T08:18:04.925Z,78.77
2019-02-11T08:19:04.874Z,78.67
2019-02-11T08:20:04.872Z,78.74
2019-02-11T08:21:04.842Z,78.88
2019-02-11T08:22:04.842Z,78.67
2019-02-11T08:23:11.895Z,78.53
2019-02-11T08:24:05.812Z,78.74
2019-02-11T08:25:04.814Z,78.53
2019-02-11T08:26:06.189Z,78.56
2019-02-11T08:27:04.789Z,78.56
2019-02-11T08:28:04.829Z,78.67
2019-02-11T08:29:04.774Z,78.56
2019-02-11T08:30:04.757Z,77.84
2019-02-11T08:31:04.780Z,77.60
2019-02-11T08:32:04.754Z,77.36
2019-02-11T08:33:04.749Z,77.04
2019-02-11T08:34:04.716Z,76.29
2019-02-11T08:35:04.710Z,75.87
2019-02-11T08:36:04.698Z,75.74
2019-02-11T08:37:04.680Z,75.95
2019-02-11T08:38:04.687Z,75.60
2019-02-11T08:39:04.682Z,74.57
2019-02-11T08:40:04.645Z,74.05
2019-02-11T08:41:04.638Z,74.98
2019-02-11T08:42:04.641Z,74.15
2019-02-11T08:43:04.752Z,73.91
2019-02-11T08:44:04.603Z,72.44
2019-02-11T08:45:04.608Z,72.92
2019-02-11T08:46:04.598Z,71.78
2019-02-11T08:47:04.617Z,72.71
2019-02-11T08:48:04.624Z,72.23
2019-02-11T08:49:04.563Z,72.23
2019-02-11T08:50:04.542Z,72.20
2019-02-11T08:51:04.549Z,72.30
2019-02-11T08:52:04.520Z,72.71
2019-02-11T08:53:04.556Z,72.13
2019-02-11T08:54:04.499Z,72.16
2019-02-11T08:55:04.518Z,72.58
2019-02-11T08:56:04.477Z,72.88
2019-02-11T08:57:04.479Z,72.58
2019-02-11T08:58:04.505Z,72.99
2019-02-11T08:59:04.451Z,72.47
2019-02-11T09:00:04.457Z,72.78
2019-02-11T09:01:04.462Z,72.81
2019-02-11T09:02:04.430Z,73.33
2019-02-11T09:03:04.430Z,73.02
2019-02-11T09:04:04.397Z,73.64
2019-02-11T09:05:04.386Z,73.43
2019-02-11T09:06:04.375Z,73.57
2019-02-11T09:07:04.375Z,73.43
2019-02-11T09:08:04.382Z,73.22
2019-02-11T09:09:04.359Z,73.36
2019-02-11T09:10:04.328Z,73.36
2019-02-11T09:11:04.327Z,73.88
2019-02-11T09:12:04.312Z,73.85
2019-02-11T09:13:04.323Z,73.54
2019-02-11T09:14:04.294Z,73.33
2019-02-11T09:15:04.289Z,73.33
2019-02-11T09:16:04.299Z,72.71
2019-02-11T09:17:10.025Z,73.64
2019-02-11T09:18:05.394Z,72.81
2019-02-11T09:19:04.252Z,72.50
2019-02-11T09:20:04.226Z,72.92
2019-02-11T09:21:04.219Z,72.92
2019-02-11T09:22:07.711Z,73.26
2019-02-11T09:23:04.217Z,73.88
2019-02-11T09:24:04.216Z,73.77
2019-02-11T09:25:04.182Z,73.98
2019-02-11T09:26:04.172Z,74.91
2019-02-11T09:27:04.159Z,74.19
2019-02-11T09:28:04.173Z,73.98
2019-02-11T09:29:04.163Z,73.47
2019-02-11T09:30:04.130Z,74.08
2019-02-11T09:31:04.122Z,74.40
2019-02-11T09:32:04.107Z,74.40
2019-02-11T09:33:04.097Z,73.98
2019-02-11T09:34:04.111Z,74.08
2019-02-11T09:35:04.132Z,73.77
2019-02-11T09:36:04.064Z,74.08
2019-02-11T09:37:04.059Z,74.08
2019-02-11T09:38:04.039Z,73.98
2019-02-11T09:39:04.066Z,73.22
2019-02-11T09:40:04.013Z,73.33
2019-02-11T09:41:04.002Z,73.02
2019-02-11T09:42:03.997Z,72.47
2019-02-11T09:43:03.981Z,72.47
2019-02-11T09:44:03.992Z,72.58
2019-02-11T09:45:03.975Z,71.72
2019-02-11T09:46:04.271Z,72.44
2019-02-11T09:47:03.946Z,71.92
2019-02-11T09:48:03.935Z,71.20
2019-02-11T09:49:03.956Z,71.72
2019-02-11T09:50:03.915Z,71.72
2019-02-11T09:51:03.893Z,71.06
2019-02-11T09:52:03.883Z,71.51
2019-02-11T09:53:03.872Z,72.54
2019-02-11T09:54:03.889Z,72.33
2019-02-11T09:55:03.860Z,71.20
2019-02-11T09:56:03.856Z,71.95
2019-02-11T09:57:03.848Z,71.75
2019-02-11T09:58:03.820Z,72.47
2019-02-11T09:59:03.827Z,72.37
2019-02-11T10:00:03.801Z,72.16
2019-02-11T10:01:03.800Z,72.27
2019-02-11T10:02:03.779Z,72.47
2019-02-11T10:03:03.767Z,72.47
2019-02-11T10:04:03.773Z,72.30
2019-02-11T10:05:03.746Z,71.14
2019-02-11T10:06:03.737Z,70.79
2019-02-11T10:07:03.731Z,70.18
2019-02-11T10:08:03.713Z,70.52
2019-02-11T10:09:03.720Z,67.76
2019-02-11T10:10:03.689Z,66.01
2019-02-11T10:11:03.691Z,66.42
2019-02-11T10:12:03.669Z,66.42
2019-02-11T10:13:03.673Z,66.69
2019-02-11T10:14:03.671Z,67.44
2019-02-11T10:15:03.641Z,67.88
2019-02-11T10:16:12.042Z,70.25
2019-02-11T10:17:04.625Z,69.18
2019-02-11T10:18:03.601Z,67.58
2019-02-11T10:19:03.621Z,65.10
2019-02-11T10:20:03.580Z,63.81
2019-02-11T10:21:03.572Z,62.42
2019-02-11T10:22:03.562Z,61.24
2019-02-11T10:23:03.810Z,60.16
2019-02-11T10:24:03.560Z,57.88
2019-02-11T10:25:03.546Z,57.55
2019-02-11T10:26:03.527Z,57.86
2019-02-11T10:27:03.501Z,55.89
2019-02-11T10:28:03.497Z,56.68
2019-02-11T10:29:03.514Z,55.94
2019-02-11T10:30:03.486Z,56.04
2019-02-11T10:31:03.464Z,56.04
2019-02-11T10:32:03.452Z,55.18
2019-02-11T10:33:03.446Z,54.36
2019-02-11T10:34:03.454Z,55.74
2019-02-11T10:35:03.420Z,54.54
2019-02-11T10:36:03.408Z,56.12
2019-02-11T10:37:03.416Z,56.15
2019-02-11T10:38:03.394Z,57.93
2019-02-11T10:39:03.407Z,59.12
2019-02-11T10:40:03.359Z,60.27
2019-02-11T10:41:03.363Z,59.99
2019-02-11T10:42:03.338Z,60.63
2019-02-11T10:43:03.344Z,61.55
2019-02-11T10:44:03.348Z,62.10
2019-02-11T10:45:03.305Z,62.61
2019-02-11T10:46:03.315Z,62.71
2019-02-11T10:47:03.292Z,61.86
2019-02-11T10:48:03.291Z,61.15
2019-02-11T10:49:03.262Z,61.58
2019-02-11T10:50:03.271Z,62.63
2019-02-11T10:51:03.240Z,63.76
2019-02-11T10:52:03.242Z,63.90
2019-02-11T10:53:03.218Z,64.34
2019-02-11T10:54:03.215Z,64.75
2019-02-11T10:55:03.221Z,64.64
2019-02-11T10:56:03.183Z,65.12
2019-02-11T10:57:03.174Z,65.32
2019-02-11T10:58:03.159Z,64.81
2019-02-11T10:59:03.156Z,65.77
2019-02-11T11:00:03.172Z,66.79
2019-02-11T11:01:03.131Z,66.48
2019-02-11T11:02:03.114Z,66.04
2019-02-11T11:03:03.114Z,65.66
2019-02-11T11:04:03.093Z,65.77
2019-02-11T11:05:03.103Z,66.69
2019-02-11T11:06:03.074Z,65.83
2019-02-11T11:07:03.058Z,65.25
2019-02-11T11:08:03.050Z,65.45
2019-02-11T11:09:04.613Z,65.22
2019-02-11T11:10:03.049Z,66.04
2019-02-11T11:11:03.017Z,66.14
2019-02-11T11:12:03.006Z,65.83
2019-02-11T11:13:02.990Z,65.63
2019-02-11T11:14:02.991Z,65.91
2019-02-11T11:15:03.000Z,65.70
2019-02-11T11:16:02.976Z,65.29
2019-02-11T11:17:02.981Z,65.06
2019-02-11T11:18:02.955Z,64.78
2019-02-11T11:19:02.923Z,64.54
2019-02-11T11:20:02.933Z,64.95
2019-02-11T11:21:02.900Z,65.06
2019-02-11T11:22:02.891Z,65.16
2019-02-11T11:23:02.877Z,65.29
2019-02-11T11:24:02.884Z,65.77
2019-02-11T11:25:02.878Z,65.32
2019-02-11T11:26:02.850Z,66.04
2019-02-11T11:27:02.833Z,65.53
2019-02-11T11:28:02.822Z,66.07
2019-02-11T11:29:02.813Z,65.94
2019-02-11T11:30:02.823Z,65.63
2019-02-11T11:31:02.789Z,65.32
2019-02-11T11:32:02.777Z,65.73
2019-02-11T11:33:02.777Z,66.45
2019-02-11T11:34:02.758Z,65.01
2019-02-11T11:35:02.774Z,65.22
2019-02-11T11:36:02.732Z,66.04
2019-02-11T11:37:02.721Z,66.25
2019-02-11T11:38:02.711Z,65.32
2019-02-11T11:39:02.701Z,65.77
2019-02-11T11:40:02.707Z,65.80
2019-02-11T11:41:02.688Z,65.80
2019-02-11T11:42:02.666Z,66.31
2019-02-11T11:43:02.654Z,66.72
2019-02-11T11:44:02.644Z,67.33
2019-02-11T11:45:02.659Z,65.97
2019-02-11T11:46:02.626Z,66.66
2019-02-11T11:47:02.626Z,65.80
2019-02-11T11:48:02.604Z,65.39
2019-02-11T11:49:02.589Z,64.81
2019-02-11T11:50:02.599Z,65.22
2019-02-11T11:51:02.567Z,65.22
2019-02-11T11:52:02.560Z,65.53
2019-02-11T11:53:02.567Z,64.70
2019-02-11T11:54:02.539Z,64.78
2019-02-11T11:55:02.542Z,64.67
2019-02-11T11:56:02.729Z,63.90
2019-02-11T11:57:02.503Z,62.87
2019-02-11T11:58:02.507Z,62.98
2019-02-11T11:59:02.531Z,63.07
2019-02-11T12:00:02.516Z,63.10
2019-02-11T12:01:02.463Z,63.75
2019-02-11T12:02:02.453Z,63.89
2019-02-11T12:03:04.559Z,64.60
2019-02-11T12:04:06.174Z,64.40
2019-02-11T12:05:02.474Z,65.63
2019-02-11T12:06:02.409Z,65.53
2019-02-11T12:07:02.406Z,65.73
2019-02-11T12:08:02.388Z,66.07
2019-02-11T12:09:02.381Z,66.28
2019-02-11T12:10:02.410Z,65.94
2019-02-11T12:11:02.375Z,65.73
2019-02-11T12:12:02.340Z,65.53
2019-02-11T12:13:20.708Z,65.63
2019-02-11T12:14:03.343Z,65.32
2019-02-11T12:15:02.328Z,65.77
2019-02-11T12:16:02.354Z,65.94
2019-02-11T12:17:03.191Z,65.94
2019-02-11T12:18:02.320Z,65.63
2019-02-11T12:19:02.362Z,65.77
2019-02-11T12:20:02.289Z,65.83
2019-02-11T12:21:02.299Z,66.58
2019-02-11T12:22:02.248Z,67.41
2019-02-11T12:23:02.243Z,67.00
2019-02-11T12:24:02.212Z,66.72
2019-02-11T12:25:02.215Z,66.93
2019-02-11T12:26:02.318Z,67.47
2019-02-11T12:27:02.183Z,68.08
2019-02-11T12:28:02.178Z,67.98
2019-02-11T12:29:02.157Z,68.80
2019-02-11T12:30:02.153Z,70.04
2019-02-11T12:31:02.170Z,70.45
2019-02-11T12:32:02.121Z,70.14
2019-02-11T12:33:02.125Z,69.84
2019-02-11T12:34:02.127Z,71.07
2019-02-11T12:35:02.136Z,71.17
2019-02-11T12:36:02.139Z,71.69
2019-02-11T12:37:02.069Z,71.79
2019-02-11T12:38:02.064Z,71.72
2019-02-11T12:39:02.056Z,71.82
2019-02-11T12:40:02.074Z,72.24
2019-02-11T12:41:02.049Z,72.85
2019-02-11T12:42:02.015Z,72.34
2019-02-11T12:43:02.000Z,72.78
2019-02-11T12:44:01.994Z,72.58
2019-02-11T12:45:02.006Z,73.71
2019-02-11T12:46:01.996Z,73.50
2019-02-11T12:47:13.391Z,73.33
2019-02-11T12:48:02.955Z,73.64
2019-02-11T12:49:01.991Z,74.22
2019-02-11T12:50:01.933Z,74.26
2019-02-11T12:51:01.938Z,73.95
2019-02-11T12:52:01.916Z,74.88
2019-02-11T12:53:01.936Z,74.77
2019-02-11T12:54:01.891Z,75.18
2019-02-11T12:55:01.947Z,75.67
2019-02-11T12:56:03.043Z,76.07
2019-02-11T12:57:01.855Z,76.07
2019-02-11T12:58:01.858Z,75.46
2019-02-11T12:59:01.834Z,76.39
2019-02-11T13:00:01.830Z,75.05
2019-02-11T13:01:01.849Z,74.12
2019-02-11T13:02:01.807Z,74.02
2019-02-11T13:03:01.787Z,74.63
2019-02-11T13:04:01.804Z,74.63
2019-02-11T13:05:01.776Z,74.63
2019-02-11T13:06:01.774Z,74.12
2019-02-11T13:07:01.755Z,73.71
2019-02-11T13:08:01.730Z,74.12
2019-02-11T13:09:01.823Z,74.95
2019-02-11T13:10:02.084Z,73.71
2019-02-11T13:11:01.734Z,73.71
2019-02-11T13:12:01.714Z,74.02
2019-02-11T13:13:01.698Z,73.06
2019-02-11T13:14:01.670Z,72.75
2019-02-11T13:15:02.010Z,72.34
2019-02-11T13:16:03.151Z,72.30
2019-02-11T13:17:14.236Z,73.02
2019-02-11T13:18:02.767Z,72.41
2019-02-11T13:19:01.633Z,72.61
2019-02-11T13:20:08.844Z,72.09
2019-02-11T13:21:02.623Z,72.41
2019-02-11T13:22:01.605Z,71.58
2019-02-11T13:23:01.577Z,71.69
2019-02-11T13:24:01.566Z,71.28
2019-02-11T13:25:01.571Z,71.55
2019-02-11T13:26:01.591Z,71.86
2019-02-11T13:27:01.532Z,70.94
2019-02-11T13:28:01.573Z,71.37
2019-02-11T13:29:01.531Z,71.28
2019-02-11T13:30:01.525Z,71.28
2019-02-11T13:31:01.489Z,71.37
2019-02-11T13:32:01.503Z,71.28
2019-02-11T13:33:01.725Z,71.37
2019-02-11T13:34:01.480Z,71.58
2019-02-11T13:35:01.442Z,71.17
2019-02-11T13:36:01.487Z,71.10
2019-02-11T13:37:01.448Z,71.82
2019-02-11T13:38:01.418Z,71.89
2019-02-11T13:39:01.412Z,71.58
2019-02-11T13:40:01.406Z,71.79
2019-02-11T13:41:01.412Z,72.20
2019-02-11T13:42:01.444Z,72.81
2019-02-11T13:43:01.356Z,72.41
2019-02-11T13:44:01.352Z,72.24
2019-02-11T13:45:01.519Z,72.75
2019-02-11T13:46:01.368Z,72.41
2019-02-11T13:47:01.351Z,72.34
2019-02-11T13:48:01.303Z,72.24
2019-02-11T13:49:01.292Z,72.75
2019-02-11T13:50:01.298Z,72.96
2019-02-11T13:51:01.290Z,73.47
2019-02-11T13:52:01.291Z,73.50
2019-02-11T13:53:01.251Z,73.16
2019-02-11T13:54:01.241Z,73.09
2019-02-11T13:55:01.282Z,73.09
2019-02-11T13:56:04.663Z,73.36
2019-02-11T13:57:01.229Z,74.40
2019-02-11T13:58:01.203Z,73.26
2019-02-11T13:59:01.182Z,73.36
2019-02-11T14:00:01.175Z,72.81
2019-02-11T14:01:01.164Z,73.54
2019-02-11T14:02:01.179Z,73.23
2019-02-11T14:03:01.217Z,72.09
2019-02-11T14:04:01.149Z,72.81
2019-02-11T14:05:01.122Z,72.75
2019-02-11T14:06:01.133Z,72.75
2019-02-11T14:07:01.119Z,73.33
2019-02-11T14:08:01.094Z,73.02
2019-02-11T14:09:01.090Z,73.44
2019-02-11T14:10:02.486Z,73.02
2019-02-11T14:11:01.057Z,73.02
2019-02-11T14:12:01.083Z,73.02
2019-02-11T14:13:01.041Z,73.33
2019-02-11T14:14:03.591Z,73.02
2019-02-11T14:15:01.020Z,73.02
2019-02-11T14:16:01.038Z,73.02
2019-02-11T14:17:01.015Z,73.30
2019-02-11T14:18:11.540Z,73.50
2019-02-11T14:19:01.973Z,73.09
2019-02-11T14:20:00.975Z,72.78
2019-02-11T14:21:00.966Z,72.89
2019-02-11T14:22:00.960Z,72.58
2019-02-11T14:23:00.926Z,72.47
2019-02-11T14:24:00.934Z,72.58
2019-02-11T14:25:00.903Z,72.03
2019-02-11T14:26:00.930Z,71.62
2019-02-11T14:27:00.912Z,71.66
2019-02-11T14:28:00.878Z,71.86
2019-02-11T14:29:00.856Z,72.27
2019-02-11T14:30:00.845Z,71.89
2019-02-11T14:31:00.838Z,71.69
2019-02-11T14:32:00.837Z,71.89
2019-02-11T14:33:00.837Z,69.94
2019-02-11T14:34:00.855Z,70.14
2019-02-11T14:35:00.863Z,71.07
2019-02-11T14:36:00.781Z,71.31
2019-02-11T14:37:00.809Z,71.62
2019-02-11T14:38:02.177Z,72.27
2019-02-11T14:39:00.794Z,72.68
2019-02-11T14:40:00.745Z,72.27
2019-02-11T14:41:00.730Z,72.68
2019-02-11T14:42:00.743Z,72.99
2019-02-11T14:43:00.729Z,73.64
2019-02-11T14:44:00.692Z,73.95
2019-02-11T14:45:00.685Z,74.16
2019-02-11T14:46:00.695Z,74.46
2019-02-11T14:47:00.666Z,73.02
2019-02-11T14:48:00.738Z,73.26
2019-02-11T14:49:00.642Z,73.33
2019-02-11T14:50:00.653Z,72.61
2019-02-11T14:51:00.622Z,71.99
2019-02-11T14:52:00.609Z,72.09
2019-02-11T14:53:00.648Z,71.48
2019-02-11T14:54:00.603Z,71.69
2019-02-11T14:55:00.595Z,71.89
2019-02-11T14:56:00.571Z,71.17
2019-02-11T14:57:00.553Z,71.34
2019-02-11T14:58:00.588Z,71.24
2019-02-11T14:59:00.530Z,71.06
2019-02-11T15:00:00.523Z,71.37
2019-02-11T15:01:00.523Z,70.86
2019-02-11T15:02:00.505Z,71.48
2019-02-11T15:03:00.518Z,71.06
2019-02-11T15:04:00.477Z,71.48
2019-02-11T15:05:00.466Z,71.61
2019-02-11T15:06:00.467Z,71.41
2019-02-11T15:07:00.455Z,71.06
2019-02-11T15:08:00.463Z,71.30
2019-02-11T15:09:00.425Z,71.17
2019-02-11T15:10:00.415Z,71.41
2019-02-11T15:11:00.401Z,71.72
2019-02-11T15:12:00.411Z,71.61
2019-02-11T15:13:00.399Z,71.00
2019-02-11T15:14:00.371Z,70.48
2019-02-11T15:15:00.393Z,71.10
2019-02-11T15:16:00.357Z,70.89
2019-02-11T15:17:00.339Z,70.07
2019-02-11T15:18:00.347Z,70.37
2019-02-11T15:19:00.316Z,70.07
2019-02-11T15:20:00.342Z,70.07
2019-02-11T15:21:00.298Z,69.55
2019-02-11T15:22:00.301Z,69.76
2019-02-11T15:23:00.294Z,69.96
2019-02-11T15:24:00.263Z,69.55
2019-02-11T15:25:00.320Z,69.55
2019-02-11T15:26:00.246Z,69.76
2019-02-11T15:27:00.231Z,69.86
2019-02-11T15:28:00.240Z,70.48
2019-02-11T15:29:00.216Z,69.76
2019-02-11T15:30:00.297Z,69.76
2019-02-11T15:31:00.186Z,69.86
2019-02-11T15:32:00.182Z,69.89
2019-02-11T15:33:00.207Z,69.96
2019-02-11T15:34:00.161Z,70.31
2019-02-11T15:35:00.319Z,70.10
2019-02-11T15:36:00.149Z,70.72
2019-02-11T15:37:00.123Z,70.31
2019-02-11T15:38:00.137Z,70.44
2019-02-11T15:39:00.112Z,70.23
2019-02-11T15:40:00.110Z,70.86
2019-02-11T15:41:00.080Z,70.34
2019-02-11T15:42:00.071Z,70.03
2019-02-11T15:43:00.079Z,70.96
2019-02-11T15:44:00.056Z,70.44
2019-02-11T15:45:00.037Z,70.34
2019-02-11T15:46:00.045Z,69.82
2019-02-11T15:47:00.016Z,70.17
2019-02-11T15:48:00.030Z,70.54
2019-02-11T15:48:59.998Z,70.44
2019-02-11T15:49:59.988Z,70.34
2019-02-11T15:50:59.975Z,70.03
2019-02-11T15:51:59.972Z,70.44
2019-02-11T15:52:59.957Z,69.62
2019-02-11T15:53:59.963Z,69.62
2019-02-11T15:54:59.944Z,69.51
2019-02-11T15:56:07.474Z,69.54
2019-02-11T15:57:00.943Z,69.41
2019-02-11T15:57:59.906Z,69.51
2019-02-11T15:58:59.913Z,69.10
2019-02-11T15:59:59.878Z,69.65
2019-02-11T16:00:59.868Z,69.65
2019-02-11T16:01:59.884Z,69.65
2019-02-11T16:02:59.844Z,69.20
2019-02-11T16:04:00.059Z,70.27
2019-02-11T16:05:02.394Z,70.57
2019-02-11T16:06:06.577Z,70.68
2019-02-11T16:07:00.802Z,70.17
2019-02-11T16:07:59.799Z,69.85
2019-02-11T16:09:04.607Z,70.68
2019-02-11T16:10:00.769Z,70.78
2019-02-11T16:11:01.439Z,70.68
2019-02-11T16:11:59.773Z,70.17
2019-02-11T16:12:59.744Z,70.47
2019-02-11T16:13:59.758Z,70.61
2019-02-11T16:14:59.726Z,71.02
2019-02-11T16:15:59.717Z,70.82
2019-02-11T16:16:59.701Z,71.20
2019-02-11T16:17:59.695Z,71.23
2019-02-11T16:18:59.702Z,72.26
2019-02-11T16:19:59.673Z,72.57
2019-02-11T16:20:59.703Z,71.67
2019-02-11T16:21:59.646Z,71.98
2019-02-11T16:22:59.633Z,72.19
2019-02-11T16:23:59.682Z,71.95
2019-02-11T16:24:59.619Z,72.19
2019-02-11T16:25:59.610Z,72.50
2019-02-11T16:26:59.601Z,72.50
2019-02-11T16:27:59.583Z,72.40
2019-02-11T16:28:59.627Z,72.36
2019-02-11T16:29:59.564Z,72.81
2019-02-11T16:30:59.556Z,72.78
2019-02-11T16:32:00.974Z,72.50
2019-02-11T16:33:01.437Z,72.61
2019-02-11T16:33:59.530Z,72.81
2019-02-11T16:34:59.537Z,72.91
2019-02-11T16:35:59.500Z,73.02
2019-02-11T16:36:59.508Z,72.50
2019-02-11T16:37:59.480Z,72.71
2019-02-11T16:38:59.497Z,72.91
2019-02-11T16:39:59.457Z,73.33
2019-02-11T16:40:59.450Z,72.91
2019-02-11T16:41:59.437Z,72.91
2019-02-11T16:42:59.432Z,72.81
2019-02-11T16:43:59.483Z,73.22
2019-02-11T16:44:59.412Z,73.85
2019-02-11T16:45:59.399Z,73.85
2019-02-11T16:46:59.392Z,73.54
2019-02-11T16:47:59.378Z,73.47
2019-02-11T16:49:00.814Z,73.64
2019-02-11T16:49:59.360Z,73.54
2019-02-11T16:50:59.352Z,73.98
2019-02-11T16:51:59.337Z,74.19
2019-02-11T16:52:59.333Z,74.08
2019-02-11T16:53:59.383Z,74.08
2019-02-11T16:54:59.369Z,75.22
2019-02-11T16:55:59.295Z,75.12
2019-02-11T16:56:59.293Z,75.22
2019-02-11T16:57:59.273Z,75.19
2019-02-11T16:58:59.268Z,75.22
2019-02-11T16:59:59.275Z,74.91
2019-02-11T17:00:59.242Z,75.01
2019-02-11T17:01:59.237Z,75.01
2019-02-11T17:02:59.235Z,75.22
2019-02-11T17:03:59.217Z,75.12
2019-02-11T17:04:59.253Z,75.01
2019-02-11T17:05:59.192Z,74.91
2019-02-11T17:06:59.192Z,74.81
2019-02-11T17:07:59.174Z,74.29
2019-02-11T17:08:59.167Z,74.08
2019-02-11T17:09:59.188Z,74.19
2019-02-11T17:10:59.141Z,74.19
2019-02-11T17:11:59.130Z,74.40
2019-02-11T17:12:59.119Z,74.29
2019-02-11T17:13:59.110Z,74.40
2019-02-11T17:14:59.119Z,74.33
2019-02-11T17:15:59.101Z,74.50
2019-02-11T17:16:59.085Z,75.01
2019-02-11T17:17:59.075Z,75.22
2019-02-11T17:18:59.058Z,75.01
2019-02-11T17:19:59.072Z,75.15
2019-02-11T17:20:59.041Z,75.22
2019-02-11T17:21:59.071Z,75.15
2019-02-11T17:22:59.019Z,75.26
2019-02-11T17:23:59.014Z,74.12
2019-02-11T17:24:58.999Z,75.26
2019-02-11T17:25:59.006Z,74.84
2019-02-11T17:26:58.980Z,74.43
2019-02-11T17:27:58.966Z,74.43
2019-02-11T17:28:58.958Z,74.43
2019-02-11T17:29:58.971Z,74.02
2019-02-11T17:30:58.936Z,73.50
2019-02-11T17:31:58.944Z,73.71
2019-02-11T17:32:58.922Z,73.39
2019-02-11T17:33:58.904Z,72.78
2019-02-11T17:34:58.913Z,73.29
2019-02-11T17:35:58.887Z,72.57
2019-02-11T17:36:58.872Z,73.08
2019-02-11T17:37:58.869Z,72.67
2019-02-11T17:38:58.855Z,72.67
2019-02-11T17:39:58.874Z,72.98
2019-02-11T17:40:58.836Z,72.78
2019-02-11T17:41:58.823Z,73.08
2019-02-11T17:42:58.811Z,72.88
2019-02-11T17:43:58.803Z,72.67
2019-02-11T17:44:58.815Z,72.60
2019-02-11T17:45:58.784Z,72.36
2019-02-11T17:46:58.774Z,72.19
2019-02-11T17:47:58.768Z,72.19
2019-02-11T17:48:58.752Z,72.29
2019-02-11T17:49:58.780Z,72.08
2019-02-11T17:50:58.733Z,71.98
2019-02-11T17:51:58.719Z,71.98
2019-02-11T17:52:58.707Z,71.98
2019-02-11T17:53:58.712Z,71.78
2019-02-11T17:54:58.710Z,71.98
2019-02-11T17:55:58.677Z,72.08
2019-02-11T17:56:58.682Z,71.78
2019-02-11T17:57:58.656Z,71.36
2019-02-11T17:58:58.650Z,70.95
2019-02-11T17:59:58.664Z,71.26
2019-02-11T18:00:58.631Z,70.84
2019-02-11T18:01:58.626Z,70.64
2019-02-11T18:02:58.612Z,69.81
2019-02-11T18:03:58.605Z,70.43
2019-02-11T18:04:58.584Z,70.36
2019-02-11T18:06:00.340Z,70.01
2019-02-11T18:06:58.570Z,69.71
2019-02-11T18:07:58.556Z,70.95
2019-02-11T18:08:58.550Z,70.01
2019-02-11T18:09:58.531Z,70.01
2019-02-11T18:10:58.559Z,69.64
2019-02-11T18:11:58.510Z,69.81
2019-02-11T18:12:58.508Z,70.74
2019-02-11T18:13:58.494Z,70.22
2019-02-11T18:14:58.486Z,69.92
2019-02-11T18:15:58.494Z,70.22
2019-02-11T18:16:58.458Z,69.22
2019-02-11T18:17:58.449Z,69.32
2019-02-11T18:18:58.437Z,69.40
2019-02-11T18:19:58.429Z,69.19
2019-02-11T18:20:58.448Z,69.09
2019-02-11T18:21:58.411Z,69.32
2019-02-11T18:22:58.396Z,69.12
2019-02-11T18:23:58.400Z,68.80
2019-02-11T18:24:58.377Z,69.29
2019-02-11T18:25:58.392Z,69.95
2019-02-11T18:26:58.360Z,70.05
2019-02-11T18:27:58.365Z,69.64
2019-02-11T18:28:58.335Z,69.95
2019-02-11T18:29:58.328Z,69.74
2019-02-11T18:30:58.334Z,70.15
2019-02-11T18:31:58.305Z,69.95
2019-02-11T18:32:58.293Z,70.87
2019-02-11T18:33:58.290Z,69.74
2019-02-11T18:34:58.277Z,70.18
2019-02-11T18:35:58.282Z,69.74
2019-02-11T18:36:58.251Z,70.87
2019-02-11T18:37:58.242Z,69.95
2019-02-11T18:38:58.233Z,70.18
2019-02-11T18:39:58.223Z,69.77
2019-02-11T18:40:58.248Z,69.95
2019-02-11T18:41:58.198Z,70.08
2019-02-11T18:42:58.198Z,70.18
2019-02-11T18:43:58.177Z,69.87
2019-02-11T18:44:58.168Z,70.29
2019-02-11T18:45:58.177Z,70.81
2019-02-11T18:46:58.152Z,71.22
2019-02-11T18:47:58.138Z,70.70
2019-02-11T18:48:58.138Z,71.33
2019-02-11T18:49:58.120Z,71.12
2019-02-11T18:50:58.127Z,71.33
2019-02-11T18:51:58.104Z,71.22
2019-02-11T18:52:59.990Z,71.22
2019-02-11T18:53:58.077Z,71.33
2019-02-11T18:54:58.091Z,71.77
2019-02-11T18:55:58.151Z,71.56
2019-02-11T18:56:58.045Z,71.88
2019-02-11T18:57:58.040Z,71.77
2019-02-11T18:58:58.065Z,72.08
2019-02-11T18:59:58.017Z,72.05
2019-02-11T19:00:58.010Z,71.98
2019-02-11T19:01:58.067Z,72.81
2019-02-11T19:02:57.985Z,72.60
2019-02-11T19:03:57.970Z,72.71
2019-02-11T19:04:57.977Z,72.74
2019-02-11T19:05:57.954Z,72.63
2019-02-11T19:06:57.972Z,72.91
2019-02-11T19:08:00.768Z,73.36
2019-02-11T19:08:57.961Z,73.25
2019-02-11T19:09:57.921Z,73.46
2019-02-11T19:10:57.896Z,73.25
2019-02-11T19:11:57.910Z,73.36
2019-02-11T19:12:57.890Z,72.74
2019-02-11T19:13:57.875Z,72.94
2019-02-11T19:14:57.890Z,73.15
2019-02-11T19:15:57.843Z,72.84
2019-02-11T19:16:57.868Z,73.77
2019-02-11T19:17:57.865Z,72.84
2019-02-11T19:18:57.811Z,72.91
2019-02-11T19:19:57.805Z,72.94
2019-02-11T19:20:57.815Z,73.05
2019-02-11T19:21:57.826Z,73.25
2019-02-11T19:22:57.810Z,73.36
2019-02-11T19:23:57.774Z,73.46
2019-02-11T19:24:57.758Z,73.88
2019-02-11T19:25:57.754Z,73.57
2019-02-11T19:26:57.773Z,73.46
2019-02-11T19:27:57.716Z,74.19
2019-02-11T19:28:57.707Z,73.98
2019-02-11T19:29:57.701Z,73.77
2019-02-11T19:30:57.691Z,73.77
2019-02-11T19:31:57.723Z,73.77
2019-02-11T19:32:57.683Z,73.57
2019-02-11T19:33:57.656Z,74.43
2019-02-11T19:34:57.658Z,74.22
2019-02-11T19:35:57.631Z,73.60
2019-02-11T19:36:57.676Z,73.91
2019-02-11T19:37:57.664Z,74.43
2019-02-11T19:38:57.605Z,74.53
2019-02-11T19:39:57.591Z,74.53
2019-02-11T19:40:57.641Z,74.60
2019-02-11T19:41:57.722Z,75.22
2019-02-11T19:42:57.580Z,75.53
2019-02-11T19:43:57.670Z,74.43
2019-02-11T19:44:57.637Z,74.32
2019-02-11T19:45:57.540Z,74.29
2019-02-11T19:46:57.518Z,74.40
2019-02-11T19:47:57.540Z,75.36
2019-02-11T19:48:57.557Z,76.61
2019-02-11T19:49:57.496Z,75.88
2019-02-11T19:50:57.505Z,76.19